createdAt,value
2018-09-02T00:00:41.758Z,102885.78
2018-09-02T00:03:10.444Z,102882.86
2018-09-02T00:05:38.763Z,102884.45
2018-09-02T00:08:07.039Z,102887.75
2018-09-02T00:10:35.345Z,102892.52
2018-09-02T00:13:03.617Z,102887.05
2018-09-02T00:15:31.920Z,102893.42
2018-09-02T00:18:00.169Z,102885.23
2018-09-02T00:20:28.541Z,102889.59
2018-09-02T00:22:56.821Z,102880.91
2018-09-02T00:25:26.130Z,102884.25
2018-09-02T00:27:54.401Z,102879.62
2018-09-02T00:30:23.701Z,102872.79
2018-09-02T00:32:51.981Z,102878.61
2018-09-02T00:35:20.257Z,102871.28
2018-09-02T00:37:48.558Z,102876.61
2018-09-02T00:40:16.826Z,102878.95
2018-09-02T00:42:45.148Z,102878.77
2018-09-02T00:45:13.537Z,102880.79
2018-09-02T00:47:42.191Z,102884.69
2018-09-02T00:50:10.466Z,102882.35
2018-09-02T00:52:39.125Z,102877.91
2018-09-02T00:55:07.557Z,102880.00
2018-09-02T00:57:35.845Z,102884.00
2018-09-02T01:00:04.273Z,102882.47
2018-09-02T01:02:32.578Z,102890.75
2018-09-02T01:05:00.887Z,102881.99
2018-09-02T01:07:29.263Z,102889.95
2018-09-02T01:09:57.540Z,102883.02
2018-09-02T01:12:26.932Z,102890.39
2018-09-02T01:14:55.413Z,102887.61
2018-09-02T01:17:23.692Z,102887.90
2018-09-02T01:19:52.067Z,102883.25
2018-09-02T01:22:20.380Z,102887.53
2018-09-02T01:24:49.746Z,102889.47
2018-09-02T01:27:18.052Z,102886.80
2018-09-02T01:29:46.317Z,102893.06
2018-09-02T01:32:15.249Z,102886.88
2018-09-02T01:34:43.537Z,102895.88
2018-09-02T01:37:11.821Z,102895.67
2018-09-02T01:39:40.373Z,102890.61
2018-09-02T01:42:08.678Z,102892.59
2018-09-02T01:44:36.983Z,102893.65
2018-09-02T01:47:05.318Z,102894.41
2018-09-02T01:49:33.614Z,102900.09
2018-09-02T01:52:02.941Z,102908.77
2018-09-02T01:54:31.266Z,102906.75
2018-09-02T01:56:59.568Z,102900.38
2018-09-02T01:59:27.887Z,102906.02
2018-09-02T02:01:56.362Z,102910.19
2018-09-02T02:04:27.101Z,102901.35
2018-09-02T02:06:55.377Z,102904.27
2018-09-02T02:09:23.669Z,102910.12
2018-09-02T02:11:52.022Z,102909.39
2018-09-02T02:14:20.341Z,102905.22
2018-09-02T02:16:48.629Z,102899.34
2018-09-02T02:19:16.934Z,102901.45
2018-09-02T02:21:45.213Z,102901.16
2018-09-02T02:24:13.526Z,102895.91
2018-09-02T02:26:42.921Z,102894.33
2018-09-02T02:29:11.413Z,102896.59
2018-09-02T02:31:39.674Z,102894.36
2018-09-02T02:34:08.068Z,102894.17
2018-09-02T02:36:36.633Z,102891.69
2018-09-02T02:39:08.017Z,102899.98
2018-09-02T02:41:36.312Z,102902.47
2018-09-02T02:44:04.624Z,102910.00
2018-09-02T02:46:32.930Z,102909.16
2018-09-02T02:49:01.205Z,102908.59
2018-09-02T02:51:29.509Z,102910.77
2018-09-02T02:53:57.802Z,102912.45
2018-09-02T02:56:27.137Z,102911.70
2018-09-02T02:58:55.627Z,102907.85
2018-09-02T03:01:23.904Z,102903.44
2018-09-02T03:03:52.219Z,102905.70
2018-09-02T03:06:20.493Z,102901.87
2018-09-02T03:08:48.761Z,102903.82
2018-09-02T03:11:17.046Z,102902.50
2018-09-02T03:13:45.310Z,102903.25
2018-09-02T03:16:13.583Z,102892.92
2018-09-02T03:18:41.859Z,102896.88
2018-09-02T03:21:10.163Z,102897.08
2018-09-02T03:23:38.450Z,102896.41
2018-09-02T03:26:06.782Z,102901.77
2018-09-02T03:28:35.051Z,102893.12
2018-09-02T03:31:03.360Z,102891.23
2018-09-02T03:33:31.806Z,102897.82
2018-09-02T03:36:00.057Z,102902.34
2018-09-02T03:38:28.341Z,102904.05
2018-09-02T03:40:56.677Z,102905.93
2018-09-02T03:43:25.009Z,102902.41
2018-09-02T03:45:53.268Z,102894.45
2018-09-02T03:48:21.550Z,102899.14
2018-09-02T03:50:49.821Z,102896.88
2018-09-02T03:53:18.182Z,102903.94
2018-09-02T03:55:46.448Z,102905.46
2018-09-02T03:58:14.740Z,102904.25
2018-09-02T04:00:42.991Z,102908.64
2018-09-02T04:03:11.257Z,102906.47
2018-09-02T04:05:39.513Z,102907.83
2018-09-02T04:08:07.782Z,102899.92
2018-09-02T04:10:36.037Z,102898.41
2018-09-02T04:13:04.346Z,102902.93
2018-09-02T04:15:32.591Z,102910.06
2018-09-02T04:18:00.899Z,102908.94
2018-09-02T04:20:32.786Z,102907.05
2018-09-02T04:23:01.058Z,102910.83
2018-09-02T04:25:29.456Z,102904.79
2018-09-02T04:27:57.728Z,102904.35
2018-09-02T04:30:26.038Z,102903.30
2018-09-02T04:32:54.310Z,102905.36
2018-09-02T04:35:22.805Z,102906.03
2018-09-02T04:37:51.076Z,102905.56
2018-09-02T04:40:19.556Z,102903.12
2018-09-02T04:42:47.858Z,102902.16
2018-09-02T04:45:16.266Z,102901.62
2018-09-02T04:47:44.701Z,102904.79
2018-09-02T04:50:16.077Z,102905.47
2018-09-02T04:52:44.347Z,102902.36
2018-09-02T04:55:12.661Z,102906.58
2018-09-02T04:57:41.769Z,102906.67
2018-09-02T05:00:10.189Z,102906.95
2018-09-02T05:02:39.433Z,102898.77
2018-09-02T05:05:07.753Z,102904.20
2018-09-02T05:07:36.413Z,102895.93
2018-09-02T05:10:05.571Z,102900.45
2018-09-02T05:12:33.851Z,102897.24
2018-09-02T05:15:02.109Z,102903.94
2018-09-02T05:17:31.825Z,102906.45
2018-09-02T05:20:00.109Z,102907.06
2018-09-02T05:22:28.788Z,102906.22
2018-09-02T05:24:57.059Z,102907.75
2018-09-02T05:27:25.369Z,102904.11
2018-09-02T05:29:53.706Z,102900.50
2018-09-02T05:32:22.383Z,102894.41
2018-09-02T05:34:50.629Z,102901.11
2018-09-02T05:37:19.249Z,102899.26
2018-09-02T05:39:48.579Z,102895.92
2018-09-02T05:42:16.873Z,102898.86
2018-09-02T05:44:45.132Z,102904.57
2018-09-02T05:47:13.413Z,102905.89
2018-09-02T05:49:41.710Z,102904.63
2018-09-02T05:52:09.981Z,102902.80
2018-09-02T05:54:38.237Z,102904.13
2018-09-02T05:57:06.521Z,102907.02
2018-09-02T05:59:34.793Z,102898.77
2018-09-02T06:02:03.583Z,102898.82
2018-09-02T06:04:31.847Z,102896.47
2018-09-02T06:07:00.122Z,102901.13
2018-09-02T06:09:28.425Z,102902.93
2018-09-02T06:11:56.711Z,102903.41
2018-09-02T06:14:26.029Z,102897.05
2018-09-02T06:16:54.321Z,102899.59
2018-09-02T06:19:22.605Z,102905.85
2018-09-02T06:21:50.885Z,102902.72
2018-09-02T06:24:19.197Z,102905.50
2018-09-02T06:26:47.476Z,102909.47
2018-09-02T06:29:15.766Z,102907.08
2018-09-02T06:31:44.017Z,102908.53
2018-09-02T06:34:12.312Z,102909.27
2018-09-02T06:36:40.597Z,102908.52
2018-09-02T06:39:10.836Z,102908.84
2018-09-02T06:41:39.122Z,102907.41
2018-09-02T06:44:07.405Z,102904.16
2018-09-02T06:46:35.841Z,102898.75
2018-09-02T06:49:04.243Z,102899.01
2018-09-02T06:51:32.517Z,102898.92
2018-09-02T06:54:00.788Z,102901.19
2018-09-02T06:56:29.109Z,102903.23
2018-09-02T06:58:58.437Z,102904.45
2018-09-02T07:01:26.724Z,102902.08
2018-09-02T07:03:55.001Z,102896.80
2018-09-02T07:06:23.289Z,102897.63
2018-09-02T07:08:51.623Z,102900.28
2018-09-02T07:11:19.939Z,102897.96
2018-09-02T07:13:49.532Z,102894.86
2018-09-02T07:16:17.807Z,102901.44
2018-09-02T07:18:46.069Z,102902.77
2018-09-02T07:21:14.360Z,102903.84
2018-09-02T07:23:42.741Z,102902.86
2018-09-02T07:26:11.033Z,102903.54
2018-09-02T07:28:39.369Z,102903.34
2018-09-02T07:31:07.692Z,102911.20
2018-09-02T07:33:36.005Z,102903.50
2018-09-02T07:36:04.300Z,102902.94
2018-09-02T07:38:32.605Z,102903.83
2018-09-02T07:41:00.938Z,102897.58
2018-09-02T07:43:29.286Z,102903.24
2018-09-02T07:45:57.509Z,102908.63
2018-09-02T07:48:25.793Z,102917.04
2018-09-02T07:50:54.049Z,102906.84
2018-09-02T07:53:22.330Z,102913.55
2018-09-02T07:55:50.578Z,102913.98
2018-09-02T07:58:18.881Z,102909.74
2018-09-02T08:00:47.214Z,102909.75
2018-09-02T08:03:15.497Z,102902.06
2018-09-02T08:05:43.753Z,102902.70
2018-09-02T08:08:12.031Z,102911.00
2018-09-02T08:10:41.283Z,102907.28
2018-09-02T08:13:09.586Z,102915.64
2018-09-02T08:15:37.845Z,102915.69
2018-09-02T08:18:06.134Z,102911.29
2018-09-02T08:20:34.381Z,102911.09
2018-09-02T08:23:02.686Z,102910.30
2018-09-02T08:25:31.309Z,102915.91
2018-09-02T08:27:59.581Z,102918.70
2018-09-02T08:30:27.849Z,102907.61
2018-09-02T08:32:58.159Z,102916.46
2018-09-02T08:35:26.405Z,102906.53
2018-09-02T08:37:54.654Z,102910.22
2018-09-02T08:40:22.977Z,102907.53
2018-09-02T08:42:51.256Z,102909.71
2018-09-02T08:45:19.561Z,102909.02
2018-09-02T08:47:47.808Z,102917.91
2018-09-02T08:50:16.109Z,102914.19
2018-09-02T08:52:44.421Z,102911.95
2018-09-02T08:55:12.641Z,102908.00
2018-09-02T08:57:40.890Z,102910.58
2018-09-02T09:00:09.661Z,102909.53
2018-09-02T09:02:37.919Z,102906.67
2018-09-02T09:05:06.194Z,102901.59
2018-09-02T09:07:34.642Z,102901.99
2018-09-02T09:10:03.273Z,102903.94
2018-09-02T09:12:31.528Z,102898.31
2018-09-02T09:14:59.798Z,102901.00
2018-09-02T09:17:28.054Z,102898.56
2018-09-02T09:19:56.338Z,102901.69
2018-09-02T09:22:24.617Z,102900.91
2018-09-02T09:24:52.882Z,102897.18
2018-09-02T09:27:21.152Z,102904.97
2018-09-02T09:29:49.413Z,102899.45
2018-09-02T09:32:17.760Z,102900.19
2018-09-02T09:34:45.953Z,102889.98
2018-09-02T09:37:15.281Z,102886.61
2018-09-02T09:39:43.526Z,102881.89
2018-09-02T09:42:11.837Z,102880.91
2018-09-02T09:44:40.089Z,102884.27
2018-09-02T09:47:08.350Z,102883.91
2018-09-02T09:49:38.050Z,102882.81
2018-09-02T09:52:06.945Z,102886.54
2018-09-02T09:54:35.405Z,102887.11
2018-09-02T09:57:03.680Z,102888.25
2018-09-02T09:59:31.949Z,102884.09
2018-09-02T10:02:00.246Z,102886.48
2018-09-02T10:04:28.509Z,102884.37
2018-09-02T10:06:56.787Z,102889.59
2018-09-02T10:09:25.077Z,102885.09
2018-09-02T10:11:53.436Z,102886.64
2018-09-02T10:14:21.629Z,102882.47
2018-09-02T10:16:49.905Z,102878.02
2018-09-02T10:19:18.185Z,102874.41
2018-09-02T10:21:46.461Z,102876.52
2018-09-02T10:24:14.737Z,102874.68
2018-09-02T10:26:42.995Z,102880.21
2018-09-02T10:29:11.284Z,102877.35
2018-09-02T10:31:39.541Z,102873.23
2018-09-02T10:34:07.833Z,102863.81
2018-09-02T10:36:36.112Z,102857.65
2018-09-02T10:39:06.673Z,102864.25
2018-09-02T10:41:35.197Z,102866.17
2018-09-02T10:44:03.359Z,102869.00
2018-09-02T10:46:31.613Z,102862.31
2018-09-02T10:48:59.925Z,102857.84
2018-09-02T10:51:28.187Z,102861.98
2018-09-02T10:53:56.465Z,102856.66
2018-09-02T10:56:24.883Z,102854.64
2018-09-02T10:58:53.159Z,102852.09
2018-09-02T11:01:21.414Z,102848.62
2018-09-02T11:03:49.696Z,102853.39
2018-09-02T11:06:17.989Z,102847.56
2018-09-02T11:08:46.318Z,102848.16
2018-09-02T11:11:14.589Z,102834.41
2018-09-02T11:13:42.894Z,102847.48
2018-09-02T11:16:11.109Z,102844.63
2018-09-02T11:18:39.557Z,102845.40
2018-09-02T11:21:07.823Z,102838.80
2018-09-02T11:23:37.166Z,102836.18
2018-09-02T11:26:05.473Z,102834.44
2018-09-02T11:28:33.719Z,102840.39
2018-09-02T11:31:01.994Z,102833.28
2018-09-02T11:33:30.330Z,102829.20
2018-09-02T11:35:59.705Z,102824.30
2018-09-02T11:38:28.066Z,102822.63
2018-09-02T11:40:56.345Z,102816.72
2018-09-02T11:43:24.631Z,102816.64
2018-09-02T11:45:52.901Z,102811.09
2018-09-02T11:48:21.133Z,102813.37
2018-09-02T11:50:50.493Z,102809.77
2018-09-02T11:53:19.329Z,102813.66
2018-09-02T11:55:47.596Z,102808.94
2018-09-02T11:58:15.895Z,102805.45
2018-09-02T12:00:44.194Z,102802.98
2018-09-02T12:03:12.797Z,102806.58
2018-09-02T12:05:41.194Z,102792.92
2018-09-02T12:08:09.429Z,102793.38
2018-09-02T12:10:37.697Z,102789.33
2018-09-02T12:13:06.317Z,102789.75
2018-09-02T12:15:34.562Z,102783.94
2018-09-02T12:18:02.861Z,102786.33
2018-09-02T12:20:31.133Z,102786.92
2018-09-02T12:22:59.405Z,102787.09
2018-09-02T12:25:27.665Z,102776.64
2018-09-02T12:27:55.971Z,102782.09
2018-09-02T12:30:24.215Z,102786.25
2018-09-02T12:32:53.546Z,102785.12
2018-09-02T12:35:21.816Z,102789.55
2018-09-02T12:37:50.085Z,102779.11
2018-09-02T12:40:18.329Z,102783.55
2018-09-02T12:42:46.649Z,102780.02
2018-09-02T12:45:14.921Z,102778.02
2018-09-02T12:47:43.289Z,102785.45
2018-09-02T12:50:11.457Z,102779.52
2018-09-02T12:52:39.742Z,102785.07
2018-09-02T12:55:09.037Z,102784.23
2018-09-02T12:57:37.546Z,102771.71
2018-09-02T13:00:06.065Z,102773.89
2018-09-02T13:02:34.313Z,102765.88
2018-09-02T13:05:02.577Z,102759.22
2018-09-02T13:07:30.821Z,102756.38
2018-09-02T13:09:59.325Z,102760.28
2018-09-02T13:12:28.229Z,102749.67
2018-09-02T13:14:56.486Z,102754.31
2018-09-02T13:17:25.387Z,102747.77
2018-09-02T13:19:53.793Z,102755.84
2018-09-02T13:22:23.469Z,102750.56
2018-09-02T13:24:52.069Z,102741.91
2018-09-02T13:27:20.349Z,102738.09
2018-09-02T13:29:48.605Z,102739.98
2018-09-02T13:32:16.890Z,102733.50
2018-09-02T13:34:45.158Z,102713.67
2018-09-02T13:37:13.409Z,102723.55
2018-09-02T13:39:41.984Z,102717.42
2018-09-02T13:42:10.262Z,102731.95
2018-09-02T13:44:38.545Z,102731.59
2018-09-02T13:47:06.829Z,102721.87
2018-09-02T13:49:35.225Z,102718.29
2018-09-02T13:52:03.505Z,102714.59
2018-09-02T13:54:31.823Z,102718.63
2018-09-02T13:57:00.171Z,102703.69
2018-09-02T13:59:28.475Z,102706.99
2018-09-02T14:01:56.740Z,102712.89
2018-09-02T14:04:25.009Z,102709.10
2018-09-02T14:06:53.305Z,102716.42
2018-09-02T14:09:21.590Z,102714.17
2018-09-02T14:11:49.896Z,102711.70
2018-09-02T14:14:18.293Z,102705.41
2018-09-02T14:16:46.565Z,102702.44
2018-09-02T14:19:14.841Z,102701.16
2018-09-02T14:21:43.137Z,102691.33
2018-09-02T14:24:11.402Z,102681.13
2018-09-02T14:26:39.710Z,102684.01
2018-09-02T14:29:08.067Z,102684.03
2018-09-02T14:31:37.338Z,102685.45
2018-09-02T14:34:05.733Z,102683.67
2018-09-02T14:36:34.022Z,102687.74
2018-09-02T14:39:02.333Z,102684.23
2018-09-02T14:41:30.669Z,102688.27
2018-09-02T14:43:58.988Z,102679.62
2018-09-02T14:46:27.215Z,102677.61
2018-09-02T14:48:55.506Z,102670.44
2018-09-02T14:51:23.897Z,102677.28
2018-09-02T14:53:52.178Z,102678.09
2018-09-02T14:56:20.465Z,102672.27
2018-09-02T15:01:38.645Z,102665.59
2018-09-02T15:04:06.980Z,102656.73
2018-09-02T15:06:35.388Z,102656.46
2018-09-02T15:09:05.029Z,102659.72
2018-09-02T15:11:33.400Z,102660.20
2018-09-02T15:14:01.638Z,102646.65
2018-09-02T15:16:29.925Z,102648.02
2018-09-02T15:18:58.281Z,102653.27
2018-09-02T15:21:26.558Z,102662.00
2018-09-02T15:23:54.898Z,102659.49
2018-09-02T15:26:23.145Z,102657.17
2018-09-02T15:28:51.439Z,102648.11
2018-09-02T15:31:19.698Z,102647.90
2018-09-02T15:33:48.009Z,102638.39
2018-09-02T15:36:16.693Z,102627.30
2018-09-02T15:38:45.022Z,102624.03
2018-09-02T15:41:13.369Z,102618.20
2018-09-02T15:43:41.741Z,102625.11
2018-09-02T15:46:10.046Z,102615.86
2018-09-02T15:48:38.577Z,102610.89
2018-09-02T15:51:06.833Z,102604.89
2018-09-02T15:53:35.174Z,102606.30
2018-09-02T15:56:03.856Z,102611.98
2018-09-02T15:58:32.141Z,102605.56
2018-09-02T16:01:00.534Z,102605.96
2018-09-02T16:03:28.769Z,102601.50
2018-09-02T16:05:57.028Z,102599.48
2018-09-02T16:08:25.335Z,102610.24
2018-09-02T16:10:53.719Z,102612.79
2018-09-02T16:13:21.977Z,102597.09
2018-09-02T16:15:50.296Z,102595.95
2018-09-02T16:18:18.528Z,102606.84
2018-09-02T16:20:46.809Z,102615.78
2018-09-02T16:23:15.078Z,102607.45
2018-09-02T16:25:43.336Z,102605.38
2018-09-02T16:28:11.597Z,102610.42
2018-09-02T16:30:39.957Z,102608.90
2018-09-02T16:33:08.293Z,102594.02
2018-09-02T16:35:36.545Z,102600.28
2018-09-02T16:38:04.869Z,102605.00
2018-09-02T16:40:33.144Z,102598.17
2018-09-02T16:43:01.429Z,102587.27
2018-09-02T16:45:29.773Z,102573.84
2018-09-02T16:47:58.085Z,102584.34
2018-09-02T16:50:26.317Z,102586.11
2018-09-02T16:52:54.675Z,102587.97
2018-09-02T16:55:22.885Z,102584.91
2018-09-02T16:57:52.204Z,102583.79
2018-09-02T17:00:20.449Z,102582.32
2018-09-02T17:02:50.164Z,102577.42
2018-09-02T17:05:22.493Z,102579.78
2018-09-02T17:07:51.629Z,102575.27
2018-09-02T17:10:20.489Z,102581.02
2018-09-02T17:12:49.016Z,102571.31
2018-09-02T17:15:17.134Z,102569.32
2018-09-02T17:17:45.645Z,102562.25
2018-09-02T17:20:19.820Z,102575.80
2018-09-02T17:22:48.102Z,102574.05
2018-09-02T17:25:16.380Z,102568.75
2018-09-02T17:27:44.661Z,102573.61
2018-09-02T17:30:12.901Z,102569.42
2018-09-02T17:32:41.240Z,102569.07
2018-09-02T17:35:09.521Z,102571.35
2018-09-02T17:37:37.821Z,102566.23
2018-09-02T17:40:06.109Z,102566.77
2018-09-02T17:42:36.534Z,102561.05
2018-09-02T17:45:04.947Z,102566.33
2018-09-02T17:47:33.215Z,102554.20
2018-09-02T17:50:01.465Z,102559.48
2018-09-02T17:52:29.753Z,102552.95
2018-09-02T17:54:58.148Z,102559.72
2018-09-02T17:57:26.586Z,102561.84
2018-09-02T17:59:54.893Z,102563.86
2018-09-02T18:02:23.254Z,102563.52
2018-09-02T18:04:51.812Z,102568.19
2018-09-02T18:07:20.115Z,102570.28
2018-09-02T18:09:48.449Z,102562.53
2018-09-02T18:12:16.710Z,102569.13
2018-09-02T18:14:46.094Z,102566.19
2018-09-02T18:17:14.348Z,102571.38
2018-09-02T18:19:43.644Z,102568.42
2018-09-02T18:22:11.937Z,102565.59
2018-09-02T18:24:40.217Z,102565.65
2018-09-02T18:27:08.822Z,102566.21
2018-09-02T18:29:37.157Z,102572.41
2018-09-02T18:32:05.634Z,102573.75
2018-09-02T18:34:33.985Z,102574.23
2018-09-02T18:37:02.337Z,102574.09
2018-09-02T18:39:30.787Z,102572.22
2018-09-02T18:41:59.718Z,102579.84
2018-09-02T18:44:28.849Z,102581.42
2018-09-02T18:46:57.194Z,102583.97
2018-09-02T18:49:25.505Z,102585.01
2018-09-02T18:51:53.837Z,102590.22
2018-09-02T18:54:22.186Z,102593.16
2018-09-02T18:56:50.373Z,102589.42
2018-09-02T18:59:18.741Z,102591.34
2018-09-02T19:01:47.033Z,102586.86
2018-09-02T19:04:15.276Z,102593.41
2018-09-02T19:06:43.701Z,102599.03
2018-09-02T19:09:14.152Z,102594.00
2018-09-02T19:11:42.496Z,102597.05
2018-09-02T19:14:10.753Z,102595.37
2018-09-02T19:16:41.333Z,102596.71
2018-09-02T19:19:09.993Z,102598.67
2018-09-02T19:21:38.329Z,102590.06
2018-09-02T19:24:06.885Z,102587.80
2018-09-02T19:26:35.246Z,102581.96
2018-09-02T19:29:03.516Z,102592.37
2018-09-02T19:31:31.821Z,102586.86
2018-09-02T19:34:00.165Z,102590.89
2018-09-02T19:36:28.457Z,102591.67
2018-09-02T19:38:56.786Z,102582.19
2018-09-02T19:41:25.041Z,102582.58
2018-09-02T19:43:53.370Z,102583.56
2018-09-02T19:46:21.836Z,102581.30
2018-09-02T19:48:50.193Z,102581.54
2018-09-02T19:51:18.546Z,102578.16
2018-09-02T19:53:46.826Z,102584.84
2018-09-02T19:56:15.088Z,102580.12
2018-09-02T19:58:43.497Z,102582.97
2018-09-02T20:01:11.776Z,102579.93
2018-09-02T20:03:40.250Z,102573.78
2018-09-02T20:06:08.620Z,102571.34
2018-09-02T20:08:36.906Z,102570.50
2018-09-02T20:11:05.214Z,102560.33
2018-09-02T20:13:33.537Z,102560.16
2018-09-02T20:16:01.794Z,102560.04
2018-09-02T20:18:30.196Z,102557.86
2018-09-02T20:20:58.610Z,102554.32
2018-09-02T20:23:26.975Z,102547.05
2018-09-02T20:25:55.249Z,102549.84
2018-09-02T20:28:23.554Z,102546.89
2018-09-02T20:30:51.845Z,102543.07
2018-09-02T20:33:21.216Z,102552.27
2018-09-02T20:35:49.553Z,102548.44
2018-09-02T20:38:17.841Z,102542.58
2018-09-02T20:40:46.101Z,102545.44
2018-09-02T20:43:14.446Z,102539.88
2018-09-02T20:45:42.725Z,102540.12
2018-09-02T20:48:12.129Z,102536.48
2018-09-02T20:50:40.552Z,102543.75
2018-09-02T20:53:08.840Z,102534.32
2018-09-02T20:55:38.154Z,102534.07
2018-09-02T20:58:06.400Z,102532.36
2018-09-02T21:00:34.680Z,102530.63
2018-09-02T21:03:03.069Z,102532.68
2018-09-02T21:05:31.383Z,102527.81
2018-09-02T21:07:59.673Z,102532.64
2018-09-02T21:10:27.967Z,102527.69
2018-09-02T21:12:56.290Z,102527.89
2018-09-02T21:15:24.673Z,102528.82
2018-09-02T21:17:53.415Z,102524.20
2018-09-02T21:20:21.669Z,102522.77
2018-09-02T21:22:49.963Z,102520.89
2018-09-02T21:25:18.244Z,102521.24
2018-09-02T21:27:46.537Z,102524.53
2018-09-02T21:30:14.799Z,102520.45
2018-09-02T21:32:43.078Z,102523.35
2018-09-02T21:35:11.511Z,102517.72
2018-09-02T21:37:39.878Z,102516.16
2018-09-02T21:40:08.149Z,102520.32
2018-09-02T21:42:36.453Z,102519.38
2018-09-02T21:45:04.766Z,102515.45
2018-09-02T21:47:33.042Z,102521.74
2018-09-02T21:50:01.343Z,102514.09
2018-09-02T21:52:29.641Z,102509.58
2018-09-02T21:54:57.993Z,102514.25
2018-09-02T21:57:26.302Z,102508.02
2018-09-02T21:59:54.668Z,102506.52
2018-09-02T22:02:23.089Z,102511.66
2018-09-02T22:04:51.495Z,102512.78
2018-09-02T22:07:19.825Z,102516.27
2018-09-02T22:09:48.125Z,102516.62
2018-09-02T22:12:16.384Z,102506.11
2018-09-02T22:14:44.675Z,102507.78
2018-09-02T22:17:12.953Z,102513.13
2018-09-02T22:19:41.249Z,102510.11
2018-09-02T22:22:09.617Z,102504.62
2018-09-02T22:24:37.913Z,102507.21
2018-09-02T22:27:06.553Z,102502.50
2018-09-02T22:29:36.001Z,102505.05
2018-09-02T22:32:04.357Z,102506.12
2018-09-02T22:34:32.866Z,102507.45
2018-09-02T22:37:01.117Z,102511.27
2018-09-02T22:39:29.432Z,102503.38
2018-09-02T22:41:57.895Z,102498.07
2018-09-02T22:44:26.152Z,102501.21
2018-09-02T22:46:54.516Z,102499.11
2018-09-02T22:49:22.829Z,102496.70
2018-09-02T22:51:53.112Z,102493.64
2018-09-02T22:54:21.550Z,102498.94
2018-09-02T22:56:49.942Z,102489.23
2018-09-02T22:59:18.210Z,102488.00
2018-09-02T23:01:46.529Z,102484.16
2018-09-02T23:04:15.953Z,102485.00
2018-09-02T23:06:44.240Z,102477.16
2018-09-02T23:09:12.495Z,102476.67
2018-09-02T23:11:40.789Z,102470.60
2018-09-02T23:14:09.093Z,102461.70
2018-09-02T23:16:37.502Z,102468.44
2018-09-02T23:19:05.765Z,102464.30
2018-09-02T23:21:34.045Z,102462.78
2018-09-02T23:24:02.324Z,102467.78
2018-09-02T23:26:30.793Z,102462.19
2018-09-02T23:28:59.101Z,102455.97
2018-09-02T23:31:27.427Z,102457.58
2018-09-02T23:33:55.676Z,102457.64
2018-09-02T23:36:23.973Z,102457.26
2018-09-02T23:38:52.237Z,102451.32
2018-09-02T23:41:20.536Z,102453.13
2018-09-02T23:43:48.828Z,102450.42
2018-09-02T23:46:17.125Z,102441.28
2018-09-02T23:48:45.396Z,102434.21
2018-09-02T23:51:13.670Z,102433.47
2018-09-02T23:53:41.977Z,102430.44
2018-09-02T23:56:10.240Z,102422.14
2018-09-02T23:58:38.545Z,102421.64
